createdAt,value
2022-09-29T00:00:21.265Z,24
2022-09-29T00:05:59.565Z,23.9
2022-09-29T00:11:36.058Z,23.9
2022-09-29T00:17:17.962Z,23.9
2022-09-29T00:23:16.689Z,24
2022-09-29T00:28:53.663Z,23.9
2022-09-29T00:34:31.475Z,23.9
2022-09-29T00:40:08.669Z,23.9
2022-09-29T00:45:30.181Z,23.9
2022-09-29T00:51:08.287Z,23.9
2022-09-29T00:56:31.241Z,23.9
2022-09-29T01:02:07.702Z,23.9
2022-09-29T01:07:45.362Z,23.9
2022-09-29T01:13:07.285Z,23.9
2022-09-29T01:18:28.427Z,23.9
2022-09-29T01:24:05.635Z,23.9
2022-09-29T01:29:28.025Z,23.9
2022-09-29T01:35:05.189Z,23.9
2022-09-29T01:40:42.817Z,23.9
2022-09-29T01:46:20.510Z,23.9
2022-09-29T01:51:57.237Z,23.9
2022-09-29T01:57:33.948Z,23.9
2022-09-29T02:03:12.391Z,23.9
2022-09-29T02:08:49.031Z,23.9
2022-09-29T02:14:26.273Z,23.9
2022-09-29T02:19:48.920Z,23.9
2022-09-29T02:25:09.247Z,23.9
2022-09-29T02:30:46.923Z,23.8
2022-09-29T02:35:54.221Z,23.8
2022-09-29T02:40:45.060Z,23.8
2022-09-29T02:46:07.687Z,23.8
2022-09-29T02:51:45.087Z,24
2022-09-29T02:57:21.951Z,23.9
2022-09-29T03:03:01.987Z,23.9
2022-09-29T03:08:23.977Z,23.9
2022-09-29T03:13:44.651Z,23.9
2022-09-29T03:19:23.080Z,23.8
2022-09-29T03:25:03.776Z,23.8
2022-09-29T03:30:40.230Z,23.8
2022-09-29T03:36:17.942Z,23.8
2022-09-29T03:41:55.721Z,23.8
2022-09-29T03:47:33.290Z,23.8
2022-09-29T03:53:11.845Z,23.8
2022-09-29T03:58:50.227Z,23.8
2022-09-29T04:04:32.582Z,23.8
2022-09-29T04:09:54.685Z,23.8
2022-09-29T04:15:16.904Z,23.7
2022-09-29T04:20:53.838Z,23.8
2022-09-29T04:26:31.757Z,23.8
2022-09-29T04:32:10.121Z,23.7
2022-09-29T04:37:49.144Z,23.8
2022-09-29T04:43:26.375Z,23.7
2022-09-29T04:49:08.660Z,23.7
2022-09-29T04:54:50.611Z,23.7
2022-09-29T05:00:28.452Z,23.7
2022-09-29T05:05:55.715Z,23.7
2022-09-29T05:11:36.582Z,23.7
2022-09-29T05:17:20.631Z,23.6
2022-09-29T05:23:34.430Z,23.6
2022-09-29T05:29:12.168Z,23.6
2022-09-29T05:34:54.390Z,23.6
2022-09-29T05:40:32.721Z,23.6
2022-09-29T05:46:12.990Z,23.6
2022-09-29T05:51:39.331Z,29.6
2022-09-29T05:57:18.321Z,32.8
2022-09-29T06:02:56.199Z,31.6
2022-09-29T06:08:37.672Z,32.6
2022-09-29T06:14:16.954Z,36.7
2022-09-29T06:19:58.199Z,37.9
2022-09-29T06:25:36.232Z,38.5
2022-09-29T06:31:15.221Z,39.1
2022-09-29T06:36:54.032Z,40
2022-09-29T06:42:31.705Z,41.1
2022-09-29T06:48:09.853Z,42.2
2022-09-29T06:55:12.647Z,42.8
2022-09-29T07:00:50.977Z,42.5
2022-09-29T07:06:53.991Z,42.6
2022-09-29T07:12:31.699Z,42.9
2022-09-29T07:18:09.992Z,43.5
2022-09-29T07:23:48.137Z,44.6
2022-09-29T07:29:58.843Z,45.3
2022-09-29T07:36:29.834Z,45.7
2022-09-29T07:42:09.366Z,46.4
2022-09-29T07:47:47.212Z,45.9
2022-09-29T07:53:25.107Z,45.7
2022-09-29T07:59:03.184Z,46
2022-09-29T08:04:43.086Z,46.2
2022-09-29T08:11:05.275Z,47.3
2022-09-29T08:17:13.529Z,47.9
2022-09-29T08:22:52.996Z,48.5
2022-09-29T08:29:43.676Z,48.6
2022-09-29T08:35:37.876Z,48.6
2022-09-29T08:41:15.661Z,48.6
2022-09-29T08:48:17.234Z,48.7
2022-09-29T08:55:36.499Z,49.8
2022-09-29T09:01:13.269Z,50.1
2022-09-29T09:06:54.516Z,51.1
2022-09-29T09:12:34.934Z,52.3
2022-09-29T09:18:12.870Z,53.1
2022-09-29T09:23:54.309Z,53.8
2022-09-29T09:29:37.576Z,53.5
2022-09-29T09:36:18.688Z,53.1
2022-09-29T09:42:12.079Z,52.9
2022-09-29T09:47:56.845Z,54.1
2022-09-29T09:53:35.139Z,53.6
2022-09-29T09:59:13.175Z,54.1
2022-09-29T10:04:52.008Z,54.7
2022-09-29T10:10:30.974Z,53.9
2022-09-29T10:16:24.297Z,53.8
2022-09-29T10:22:02.782Z,54.5
2022-09-29T10:27:39.065Z,55.8
2022-09-29T10:33:16.875Z,56.3
2022-09-29T10:38:39.467Z,55.7
2022-09-29T10:44:07.417Z,55.6
2022-09-29T10:49:46.001Z,56.9
2022-09-29T10:55:25.362Z,57.4
2022-09-29T11:01:35.155Z,58.4
2022-09-29T11:07:00.541Z,59.1
2022-09-29T11:12:42.448Z,59.7
2022-09-29T11:18:19.569Z,60.3
2022-09-29T11:23:56.795Z,60.5
2022-09-29T11:29:35.131Z,61.1
2022-09-29T11:35:15.428Z,61.6
2022-09-29T11:40:53.414Z,61.9
2022-09-29T11:46:32.303Z,61.9
2022-09-29T11:52:11.099Z,61.8
2022-09-29T11:57:52.487Z,62.6
2022-09-29T12:03:31.138Z,63.3
2022-09-29T12:09:12.945Z,63.8
2022-09-29T12:15:47.757Z,63.1
2022-09-29T12:21:32.136Z,62.3
2022-09-29T12:27:11.372Z,62.1
2022-09-29T12:32:52.388Z,61.3
2022-09-29T12:38:31.192Z,60.4
2022-09-29T12:43:58.247Z,59.6
2022-09-29T12:49:27.542Z,59
2022-09-29T12:55:06.291Z,58.5
2022-09-29T13:00:28.027Z,57.9
2022-09-29T13:06:10.877Z,57.6
2022-09-29T13:11:49.607Z,57
2022-09-29T13:17:27.473Z,56.6
2022-09-29T13:23:52.891Z,56
2022-09-29T13:29:33.399Z,55.4
2022-09-29T13:34:58.076Z,54.8
2022-09-29T13:40:37.629Z,54.3
2022-09-29T13:46:04.828Z,53.8
2022-09-29T13:51:26.700Z,53.2
2022-09-29T13:57:05.059Z,52.6
2022-09-29T14:02:49.208Z,52.1
2022-09-29T14:08:53.254Z,51.4
2022-09-29T14:14:32.826Z,50.1
2022-09-29T14:20:11.424Z,47.3
2022-09-29T14:25:52.955Z,44.8
2022-09-29T14:31:31.283Z,42.9
2022-09-29T14:37:09.606Z,41.4
2022-09-29T14:43:19.627Z,40.3
2022-09-29T14:48:58.030Z,39.4
2022-09-29T14:54:36.118Z,38.6
2022-09-29T15:00:14.401Z,38
2022-09-29T15:06:18.281Z,37.4
2022-09-29T15:11:56.807Z,36.9
2022-09-29T15:17:34.852Z,36.4
2022-09-29T15:23:17.371Z,36
2022-09-29T15:28:55.287Z,35.6
2022-09-29T15:34:38.085Z,35.3
2022-09-29T15:40:17.410Z,35
2022-09-29T15:45:46.183Z,34.7
2022-09-29T15:51:23.070Z,34.4
2022-09-29T15:57:04.831Z,34.3
2022-09-29T16:02:32.477Z,34.1
2022-09-29T16:08:13.804Z,33.9
2022-09-29T16:13:35.505Z,33.7
2022-09-29T16:19:02.991Z,33.6
2022-09-29T16:24:25.275Z,33.4
2022-09-29T16:29:47.836Z,33.3
2022-09-29T16:34:57.715Z,33.1
2022-09-29T16:40:40.418Z,33
2022-09-29T16:45:47.514Z,32.9
2022-09-29T16:51:53.801Z,32.7
2022-09-29T16:57:30.468Z,32.6
2022-09-29T17:02:56.851Z,32.5
2022-09-29T17:08:34.641Z,32.4
2022-09-29T17:14:13.151Z,32.2
2022-09-29T17:19:51.124Z,32.1
2022-09-29T17:25:33.089Z,32
2022-09-29T17:30:55.899Z,31.9
2022-09-29T17:36:18.390Z,31.8
2022-09-29T17:42:01.913Z,31.7
2022-09-29T17:47:43.779Z,31.6
2022-09-29T17:53:21.795Z,31.5
2022-09-29T17:58:44.593Z,31.4
2022-09-29T18:04:25.978Z,31.3
2022-09-29T18:10:04.054Z,31.3
2022-09-29T18:15:10.946Z,31.2
2022-09-29T18:20:53.937Z,31.1
2022-09-29T18:26:20.682Z,31.1
2022-09-29T18:32:02.144Z,31
2022-09-29T18:37:24.412Z,30.9
2022-09-29T18:43:01.874Z,30.8
2022-09-29T18:48:42.406Z,30.8
2022-09-29T18:54:19.703Z,30.7
2022-09-29T18:59:30.730Z,30.7
2022-09-29T19:04:54.295Z,30.6
2022-09-29T19:10:32.468Z,30.6
2022-09-29T19:16:10.898Z,30.5
2022-09-29T19:21:49.048Z,30
2022-09-29T19:27:27.305Z,29.6
2022-09-29T19:33:10.297Z,29.3
2022-09-29T19:38:32.570Z,29.1
2022-09-29T19:43:56.404Z,29.1
2022-09-29T19:49:18.728Z,29
2022-09-29T19:54:57.170Z,28.9
2022-09-29T20:00:34.549Z,28.9
2022-09-29T20:06:12.418Z,28.6
2022-09-29T20:11:35.501Z,28.5
2022-09-29T20:17:13.986Z,28.4
2022-09-29T20:22:51.620Z,28.3
2022-09-29T20:28:32.146Z,28.3
2022-09-29T20:34:10.089Z,28.2
2022-09-29T20:39:46.950Z,28.2
2022-09-29T20:45:24.597Z,28.2
2022-09-29T20:51:02.025Z,28.1
2022-09-29T20:56:26.327Z,28.1
2022-09-29T21:02:05.193Z,28.1
2022-09-29T21:07:43.389Z,28.1
2022-09-29T21:13:21.293Z,28.1
2022-09-29T21:18:59.146Z,28.1
2022-09-29T21:24:40.096Z,28.1
2022-09-29T21:30:16.740Z,28.1
2022-09-29T21:35:55.470Z,28.1
2022-09-29T21:41:38.014Z,28.1
2022-09-29T21:47:15.120Z,28.1
2022-09-29T21:52:37.269Z,28.1
2022-09-29T21:58:14.259Z,28.1
2022-09-29T22:03:58.136Z,28.1
2022-09-29T22:09:36.217Z,28.2
2022-09-29T22:15:19.983Z,28.1
2022-09-29T22:21:33.494Z,28.1
2022-09-29T22:26:55.589Z,28.1
2022-09-29T22:32:33.079Z,28.1
2022-09-29T22:38:10.138Z,28.1
2022-09-29T22:43:32.152Z,28.1
2022-09-29T22:48:54.154Z,28.1
2022-09-29T22:53:45.018Z,28.1
2022-09-29T22:59:07.200Z,28.1
2022-09-29T23:04:30.113Z,28.1
2022-09-29T23:10:07.966Z,28.1
2022-09-29T23:15:45.402Z,28.1
2022-09-29T23:21:22.966Z,28.1
2022-09-29T23:26:59.594Z,28.1
2022-09-29T23:32:39.288Z,28.1
2022-09-29T23:38:16.325Z,28.1
2022-09-29T23:43:54.758Z,28.1
2022-09-29T23:49:32.682Z,28.1
2022-09-29T23:55:08.705Z,28.1
